Francisco Caicedo

Chefscout - Deportivo Pereira
3 Apr 2027
Samstag
Verarbeitung

Persönlichkeit

Anpassungsfähigkeit (1) Ehrgeiz (1) Kontroverse (16) Loyalität (17) Druck (4) Professionalität (8) Fairness (12) Temperament (18)

Profil

Trainerstil Demokratisch
Lizenz Kontinentale B
Entschlossenheit 7
Menschenführung 3
Motivation 10
Disziplin 8
Arbeitszufriedenheit
49%
Ermüdung
0%
Rolle Chefscout
Gehalt 20.0K p/W
Vertrag 14.03.2028

Leistung

Verhalten Normal
Trainingseffektivität
23%
Spielerentwicklung
20%
Verletzungsprävention
30%
Taktische Umsetzung
55%

Letzte Ereignisse

Nahm an einer Scouting-Besprechung teil 14T her
Spieler begutachtet 21T her
Nahm an einer Scouting-Besprechung teil 21T her
Spieler begutachtet 21T her
Spieler begutachtet 21T her
Spieler begutachtet 21T her
Spieler begutachtet 21T her
Spieler begutachtet 21T her

Aktuell beobachtet

162
Spieler Verein Status Fähigkeit Vertrauen Beobachtet Zuletzt beobachtet Letzte Stimme
Chris Rigg Sunderland Aktiv 140 / 131 40% 5 14.03.2027 -
Moncef Zekri Sporting CP Aktiv 98 / 114 40% 1 12.03.2027 -
Lucas Jetten Cambuur Aktiv 105 / 127 40% 1 12.03.2027 -
Ibrahim Maza Bayer Leverkusen Aktiv 160 / 157 40% 2 11.03.2027 -
James Dornelly Peterborough United Aktiv 101 / 106 40% 2 11.03.2027 -
Leandro Martins Benfica Aktiv 89 / 84 40% 3 10.03.2027 -
Itumeleng Zungu Free State Stars Aktiv 103 / 128 40% 1 10.03.2027 -
Samuele Diodato Lumezzane Aktiv 77 / 85 40% 1 09.03.2027 -
Josh King Liverpool Aktiv 155 / 138 40% 1 08.03.2027 -
Sabil Hansen Randers Aktiv 91 / 126 40% 2 28.02.2027 -
Siphesihle Sithole Inter Allies Aktiv 65 / 102 40% 1 28.02.2027 -
Rhys Chadwick Peterborough United Aktiv 87 / 93 40% 1 26.02.2027 -
Abdul Bukari WAFA Aktiv 86 / 88 40% 1 26.02.2027 -
Felix Appiah WAFA Aktiv 92 / 106 40% 2 21.02.2027 -
Surprise Manthosi Polokwane City Aktiv 107 / 88 40% 1 21.02.2027 -
Ollie Scarles West Ham United Aktiv 136 / 150 40% 3 18.02.2027 -
Honest Ahanor Atalanta Aktiv 112 / 146 40% 2 17.02.2027 -
Obed Vargas Atlético Madrid Aktiv 123 / 124 40% 4 16.02.2027 -
Mattia Mannini Juve Stabia Aktiv 116 / 131 40% 1 16.02.2027 -
Johan Manzambi Aston Villa Aktiv 134 / 160 40% 1 15.02.2027 -
Roger Hinojo Espanyol Aktiv 105 / 112 40% 3 14.02.2027 -
Simphiwe Selepe Orlando Pirates Aktiv 114 / 119 40% 3 12.02.2027 -
Milan Roganović Partizan Aktiv 104 / 128 40% 1 12.02.2027 -
Caleb Yirenkyi Coventry City Aktiv 118 / 132 40% 2 11.02.2027 -
Vasilije Novičić IMT Aktiv 112 / 103 40% 1 09.02.2027 -
Vinícius Lira Santos Aktiv 110 / 126 40% 1 05.02.2027 -
Rabby Nzingoula West Bromwich Albion Aktiv 109 / 118 40% 1 05.02.2027 -
Jake Batty Burton Albion Aktiv 112 / 109 40% 1 04.02.2027 -
Daniel Vernattus Metalist Aktiv 78 / 105 40% 2 02.02.2027 -
Luka Vušković Brighton Aktiv 135 / 153 40% 1 30.01.2027 -
Lennon Miller Udinese Aktiv 118 / 138 40% 1 29.01.2027 -
Samuel Lucero Defensa y Justicia Aktiv 113 / 113 40% 3 28.01.2027 -
Riyad Idrissi Cagliari Aktiv 139 / 136 40% 1 27.01.2027 -
Thorgan Nainggolan Mouscron Aktiv 99 / 98 40% 1 25.01.2027 -
Daniel Banjaqui Benfica Aktiv 107 / 120 40% 1 24.01.2027 -
Matías Pandiella Ludogorets Aktiv 77 / 95 40% 1 21.01.2027 -
Davinchi Getafe Aktiv 115 / 120 40% 1 21.01.2027 -
Juan Pablo De la Reta Maipú Aktiv 117 / 112 40% 1 20.01.2027 -
Tiago Freitas Benfica Aktiv 99 / 110 40% 1 20.01.2027 -
Ignacio Perruzzi San Lorenzo Aktiv 132 / 133 40% 1 17.01.2027 -
Raymond Agyemang Aduana Stars Aktiv 72 / 89 40% 1 16.01.2027 -
Enzo Cardozo Almirante Brown Aktiv 111 / 112 40% 1 16.01.2027 -
Dylan Lawlor Cardiff City Aktiv 128 / 124 40% 1 14.01.2027 -
Owen Lunt Crewe Alexandra Aktiv 87 / 111 40% 1 14.01.2027 -
Riley Owen Pergolettese Aktiv 107 / 96 40% 1 13.01.2027 -
Juho Lähteenmäki FC Nordsjaelland Aktiv 126 / 144 40% 1 12.01.2027 -
Alejo Fernández Kayserispor Aktiv 77 / 91 40% 1 11.01.2027 -
Luther Ngcobo Ajax Cape Town Aktiv 112 / 103 40% 1 11.01.2027 -
Riquelme Thompson-Jones Birmingham Aktiv 107 / 107 40% 2 09.01.2027 -
Santiago Fernández Talleres Aktiv 123 / 115 40% 1 09.01.2027 -
Elias Baum Eintracht Frankfurt Aktiv 124 / 140 40% 1 07.01.2027 -
Joe Knight Stevenage Aktiv 88 / 114 40% 1 05.01.2027 -
Leonardo Pico Fortaleza CEIF Aktiv 109 / 103 55% 1 28.12.2026 -
Aidomo Emakhu Oxford United Aktiv 125 / 128 40% 1 21.12.2026 -
Emil Riis Bristol City Aktiv 121 / 133 40% 1 21.12.2026 -
Joel Canchimbo Barranquilla Verloren 116 / 121 55% 1 06.12.2026 -
Assad Al Hamlawi Universitatea Craiova Aktiv 133 / 124 40% 1 28.11.2026 Mehr Infos nötig
Michael Smith Mansfield Town Aktiv 125 / 118 40% 1 27.11.2026 -
Santiago Solari Racing Club Aktiv 134 / 116 40% 1 26.11.2026 Mehr Infos nötig
Michael Barrios Once Caldas Aktiv 126 / 109 40% 1 25.11.2026 -
Facundo Castro Nueva Chicago Aktiv 115 / 122 40% 1 25.11.2026 -
Jonás Acevedo Instituto Aktiv 120 / 118 40% 3 23.11.2026 -
Juan Fernando Garro Ankaragucu Aktiv 100 / 96 40% 1 23.11.2026 -
Franco Fagúndez Estudiantes Aktiv 115 / 111 40% 6 22.11.2026 -
Martín Álvarez Barnsley Aktiv 98 / 117 40% 1 21.11.2026 -
Adnan Courtois KV Oostende Aktiv 106 / 118 40% 1 19.11.2026 -
Achraf Bencharki Al Ahly Aktiv 147 / 131 40% 1 19.11.2026 -
Agustín Venezia Iquique Aktiv 120 / 110 40% 2 15.11.2026 -
Andrey Estupiñán Millonarios Aktiv 121 / 114 40% 1 14.11.2026 Mehr Infos nötig
Facundo Melivilo Adana Demirspor Aktiv 124 / 101 40% 1 13.11.2026 Mehr Infos nötig
Nardin Mulahusejnović Vojvodina Aktiv 110 / 118 40% 1 12.11.2026 -
José Barreto Fehervar Aktiv 131 / 120 40% 2 11.11.2026 Mehr Infos nötig
Antoine Griezmann Orlando City Aktiv 162 / 152 40% 3 11.11.2026 Beobachten
Ignacio Russo Tigre Aktiv 119 / 122 40% 1 09.11.2026 -
Matías Sosa Arsenal Aktiv 109 / 107 40% 1 08.11.2026 -
Alexander Díaz Deportivo Riestra Aktiv 118 / 118 40% 2 07.11.2026 -
Álex Arce Independiente Rivadavia Aktiv 120 / 131 40% 2 02.11.2026 -
Facundo Suárez Instituto Aktiv 129 / 119 40% 2 30.10.2026 -
Enzo Avaro Mitre Aktiv 117 / 108 40% 1 30.10.2026 -
Alfredo Morelos Atletico Nacional Aktiv 125 / 127 40% 1 27.10.2026 -
Ramiro Ruiz Rodríguez Atlético Tucumán Aktiv 115 / 111 40% 1 27.10.2026 -
Tomás Molina Argentinos Juniors Aktiv 129 / 121 40% 2 26.10.2026 -
Leonardo Castro Millonarios Aktiv 131 / 117 40% 1 25.10.2026 -
Emiliano Rigoni Belgrano Aktiv 123 / 131 40% 1 24.10.2026 -
Ruyery Blanco Alianza Petrolera Aktiv 109 / 109 40% 1 24.10.2026 -
Lucas Passerini Belgrano Aktiv 114 / 114 40% 4 22.10.2026 -
Nicolás Fernández Belgrano Aktiv 126 / 130 40% 2 19.10.2026 -
Juan Rocca Gimnasia y Tiro Aktiv 117 / 97 40% 2 09.10.2026 -
Antony Alonso Deportivo Riestra Aktiv 128 / 114 40% 1 09.10.2026 -
Octavio Bianchi HNK Vukovar 1991 Aktiv 119 / 100 40% 1 07.10.2026 -
Leandro Suhr Boston River Aktiv 116 / 118 40% 1 07.10.2026 -
David Barbona Defensa y Justicia Aktiv 125 / 118 40% 1 06.10.2026 -
Marcelo Torres Gimnasia La Plata Aktiv 126 / 109 40% 2 04.10.2026 -
Justo Giani Universidad Catolica Aktiv 122 / 117 40% 1 02.10.2026 -
Santiago Rodríguez Gimnasia y Esgrima Aktiv 109 / 110 40% 1 02.10.2026 -
Facundo Pons San Martín Aktiv 115 / 116 40% 1 01.10.2026 -
Mauricio Asenjo Los Andes Aktiv 112 / 120 40% 1 29.09.2026 -
Facundo Vila Estudiantes Aktiv 103 / 94 40% 2 27.09.2026 -
Santiago Roggero Gimnasia y Esgrima Aktiv 110 / 97 40% 1 26.09.2026 -
Lautaro Maldonado Instituto Aktiv 116 / 122 40% 1 26.09.2026 -
Maximiliano Gómez Nacional Aktiv 122 / 114 40% 1 26.09.2026 -
Maximiliano Rodríguez Huachipato Aktiv 105 / 109 40% 1 26.09.2026 -
Mourad Tijuana Aktiv 132 / 119 40% 1 23.09.2026 -
Sebastián Meza Huracán Aktiv 125 / 131 40% 1 23.09.2026 -
Franco Carretero Deportivo Lara Aktiv 97 / 97 40% 2 22.09.2026 -
Agustín Buffa Wanderers Aktiv 95 / 109 40% 1 22.09.2026 -
Toni Fuidias Girona Aktiv 94 / 103 40% 1 20.09.2026 -
Hector Uribe La Equidad Aktiv 108 / 89 40% 1 17.09.2026 -
Luciano Cosentino Wanderers Aktiv 126 / 114 40% 1 17.09.2026 -
Ivo Costantino Danubio Aktiv 118 / 114 40% 1 16.09.2026 -
Esteban Obregón Montevideo City Torque Aktiv 113 / 104 40% 1 16.09.2026 -
Lucas Cavallini Puebla Aktiv 128 / 113 40% 2 13.09.2026 -
Matías Dufour Sportivo Trinidense Aktiv 104 / 118 40% 1 13.09.2026 -
Robin Lod Chicago Fire Aktiv 123 / 133 40% 1 12.09.2026 -
Jáder Obrian Santa Fe Aktiv 126 / 106 40% 1 12.09.2026 -
Alan Pulido Guadalajara Aktiv 112 / 131 40% 1 11.09.2026 -
Ángel Sepúlveda Guadalajara Aktiv 141 / 108 40% 1 11.09.2026 -
Jhojan Julio Queretaro Aktiv 127 / 107 40% 2 09.09.2026 -
Sebastian Hernandez Cortulua Aktiv 129 / 120 40% 1 09.09.2026 -
Renato Solís Lech Aktiv 137 / 132 40% 1 09.09.2026 -
Ángel Espínola Sportivo Luqueno Aktiv 95 / 103 40% 1 06.09.2026 -
Federico Losas Leon Aktiv 96 / 96 40% 1 06.09.2026 -
Fernando Tapia Club America Aktiv 130 / 140 40% 2 04.09.2026 -
Marino Arzamendia Olimpia Aktiv 114 / 98 40% 1 04.09.2026 -
Nicolás Campisi Sportivo Luqueno Aktiv 112 / 120 40% 2 03.09.2026 -
John Pulskamp Sporting Kansas City Aktiv 107 / 117 40% 1 03.09.2026 -
Carlos Moreno Pachuca Aktiv 141 / 116 40% 3 02.09.2026 -
Beycker Velásquez Zamora Aktiv 101 / 105 40% 2 02.09.2026 -
Drake Callender Minnesota United FC Aktiv 124 / 109 40% 1 01.09.2026 -
Francisco Vergara Gimnasia La Plata Aktiv 90 / 108 40% 1 01.09.2026 -
Marcelo Miño Debrecen Aktiv 105 / 102 40% 1 31.08.2026 -
Carlos Higuera Chiapas Aktiv 102 / 72 40% 1 30.08.2026 -
Dayne St. Clair Inter Miami CF Aktiv 113 / 141 40% 1 30.08.2026 -
Santiago Godoy 12 de Octubre Aktiv 88 / 96 40% 1 29.08.2026 -
Giacomo Gambetta Cienciano Aktiv 97 / 101 40% 1 28.08.2026 -
Rubén Rojas Portuguesa Aktiv 110 / 115 40% 1 28.08.2026 -
Omar Carabalí O'Higgins Aktiv 99 / 100 40% 2 25.08.2026 -
Alcides Benítez Portuguesa Aktiv 93 / 100 40% 1 25.08.2026 -
Osnar Noronha Cesar Vallejo Aktiv 126 / 104 40% 1 25.08.2026 -
Paulinho Toluca Aktiv 151 / 155 40% 1 25.08.2026 -
Richard Figueroa Deportivo Lara Aktiv 95 / 94 40% 1 22.08.2026 -
Lucas Villagra Kifisia Aktiv 71 / 81 40% 1 20.08.2026 -
Tomás Ahumada Audax Italiano Aktiv 99 / 97 40% 2 18.08.2026 -
Rodrigo Morínigo Libertad Aktiv 117 / 108 40% 1 18.08.2026 -
Alejandro Rodríguez Deportivo Cali Aktiv 131 / 134 40% 1 17.08.2026 -
Aldo Pérez Guarani Aktiv 110 / 117 40% 1 16.08.2026 -
Cecilio Waterman Fenix Aktiv 112 / 119 40% 1 16.08.2026 -
Christian Ebere Cruz Azul Aktiv 106 / 127 40% 1 16.08.2026 -
Cristopher Varela Deportivo La Guaira Aktiv 118 / 111 40% 2 13.08.2026 -
Lucas Verza Olimpia Aktiv 121 / 104 40% 1 12.08.2026 -
José Miers 12 de Octubre Aktiv 99 / 102 40% 1 10.08.2026 -
Julio Flores Alianza Atletico Aktiv 79 / 81 40% 1 09.08.2026 -
José Febres Trujillanos Aktiv 78 / 92 40% 1 09.08.2026 -
Alejandro Arana Chiapas Aktiv 83 / 77 40% 1 08.08.2026 -
Carles Gil New England Revolution Aktiv 148 / 135 40% 1 08.08.2026 -
Gaspar Gentile Alianza Lima Aktiv 124 / 113 40% 1 08.08.2026 -
Guillermo Martínez Pumas UNAM Aktiv 115 / 116 40% 1 07.08.2026 -
Lucas Bruera Carabobo Aktiv 129 / 114 40% 1 04.08.2026 -
Jeferson Nolasco Cesar Vallejo Aktiv 91 / 99 40% 1 03.08.2026 -
Miguel Silva Carabobo Aktiv 99 / 100 40% 1 02.08.2026 -
Ángel Fortuño Espanyol Aktiv 113 / 128 40% 1 01.08.2026 -
Adriano Freitas Deportivo Maldonado Aktiv 99 / 111 40% 1 01.08.2026 -